sensor_id;sensor_type;location;lat;lon;timestamp;P1;durP1;ratioP1;P2;durP2;ratioP2
16179;SDS011;8196;49.428;10.906;2023-05-10T00:01:26;6.35;;;5.53;;
16179;SDS011;8196;49.428;10.906;2023-05-10T00:03:53;7.57;;;5.95;;
16179;SDS011;8196;49.428;10.906;2023-05-10T00:06:20;8.73;;;6.53;;
16179;SDS011;8196;49.428;10.906;2023-05-10T00:08:47;7.13;;;5.60;;
16179;SDS011;8196;49.428;10.906;2023-05-10T00:11:13;7.20;;;5.85;;
16179;SDS011;8196;49.428;10.906;2023-05-10T00:13:40;6.93;;;5.50;;
16179;SDS011;8196;49.428;10.906;2023-05-10T00:16:07;6.97;;;5.87;;
16179;SDS011;8196;49.428;10.906;2023-05-10T00:18:33;8.07;;;6.20;;
16179;SDS011;8196;49.428;10.906;2023-05-10T00:21:00;7.18;;;5.78;;
16179;SDS011;8196;49.428;10.906;2023-05-10T00:23:27;6.80;;;6.03;;
16179;SDS011;8196;49.428;10.906;2023-05-10T00:25:54;7.30;;;5.88;;
16179;SDS011;8196;49.428;10.906;2023-05-10T00:28:20;7.80;;;6.00;;
16179;SDS011;8196;49.428;10.906;2023-05-10T00:30:47;7.70;;;5.88;;
16179;SDS011;8196;49.428;10.906;2023-05-10T00:33:14;6.93;;;6.03;;
16179;SDS011;8196;49.428;10.906;2023-05-10T00:35:41;7.35;;;6.22;;
16179;SDS011;8196;49.428;10.906;2023-05-10T00:38:07;7.63;;;6.45;;
16179;SDS011;8196;49.428;10.906;2023-05-10T00:40:35;7.82;;;5.97;;
16179;SDS011;8196;49.428;10.906;2023-05-10T00:43:03;7.13;;;6.15;;
16179;SDS011;8196;49.428;10.906;2023-05-10T00:47:57;7.95;;;6.13;;
16179;SDS011;8196;49.428;10.906;2023-05-10T00:50:26;7.13;;;5.95;;
16179;SDS011;8196;49.428;10.906;2023-05-10T00:52:52;9.20;;;6.38;;
16179;SDS011;8196;49.428;10.906;2023-05-10T00:55:19;8.73;;;5.57;;
16179;SDS011;8196;49.428;10.906;2023-05-10T00:57:47;8.52;;;6.18;;
16179;SDS011;8196;49.428;10.906;2023-05-10T01:00:14;7.15;;;5.80;;
16179;SDS011;8196;49.428;10.906;2023-05-10T01:02:45;9.65;;;6.03;;
16179;SDS011;8196;49.428;10.906;2023-05-10T01:05:12;9.10;;;6.43;;
16179;SDS011;8196;49.428;10.906;2023-05-10T01:07:39;8.10;;;6.32;;
16179;SDS011;8196;49.428;10.906;2023-05-10T01:10:07;9.45;;;6.70;;
16179;SDS011;8196;49.428;10.906;2023-05-10T01:12:37;7.80;;;6.03;;
16179;SDS011;8196;49.428;10.906;2023-05-10T01:15:06;7.78;;;5.95;;
16179;SDS011;8196;49.428;10.906;2023-05-10T01:17:35;8.75;;;6.47;;
16179;SDS011;8196;49.428;10.906;2023-05-10T01:20:05;7.50;;;6.10;;
16179;SDS011;8196;49.428;10.906;2023-05-10T01:25:11;8.57;;;6.05;;
16179;SDS011;8196;49.428;10.906;2023-05-10T01:27:47;6.88;;;5.80;;
16179;SDS011;8196;49.428;10.906;2023-05-10T01:33:39;6.65;;;5.95;;
16179;SDS011;8196;49.428;10.906;2023-05-10T01:42:03;6.03;;;4.78;;
16179;SDS011;8196;49.428;10.906;2023-05-10T01:44:52;5.85;;;4.90;;
16179;SDS011;8196;49.428;10.906;2023-05-10T01:47:26;5.50;;;4.87;;
16179;SDS011;8196;49.428;10.906;2023-05-10T01:50:02;8.48;;;4.22;;
16179;SDS011;8196;49.428;10.906;2023-05-10T01:52:33;5.20;;;4.13;;
16179;SDS011;8196;49.428;10.906;2023-05-10T01:55:04;5.10;;;3.95;;
16179;SDS011;8196;49.428;10.906;2023-05-10T01:57:34;4.53;;;4.00;;
16179;SDS011;8196;49.428;10.906;2023-05-10T02:00:03;4.97;;;3.83;;
16179;SDS011;8196;49.428;10.906;2023-05-10T02:02:33;5.93;;;4.88;;
16179;SDS011;8196;49.428;10.906;2023-05-10T02:05:05;6.50;;;5.05;;
16179;SDS011;8196;49.428;10.906;2023-05-10T02:07:34;5.18;;;4.68;;
16179;SDS011;8196;49.428;10.906;2023-05-10T02:10:03;5.88;;;4.93;;
16179;SDS011;8196;49.428;10.906;2023-05-10T02:12:32;7.78;;;5.05;;
16179;SDS011;8196;49.428;10.906;2023-05-10T02:15:03;7.17;;;5.33;;
16179;SDS011;8196;49.428;10.906;2023-05-10T02:17:34;6.95;;;5.25;;
16179;SDS011;8196;49.428;10.906;2023-05-10T02:20:03;5.65;;;4.40;;
16179;SDS011;8196;49.428;10.906;2023-05-10T02:22:32;5.15;;;3.72;;
16179;SDS011;8196;49.428;10.906;2023-05-10T02:25:00;3.72;;;3.33;;
16179;SDS011;8196;49.428;10.906;2023-05-10T02:27:29;3.47;;;3.10;;
16179;SDS011;8196;49.428;10.906;2023-05-10T02:29:57;3.47;;;2.83;;
16179;SDS011;8196;49.428;10.906;2023-05-10T02:32:24;3.35;;;2.60;;
16179;SDS011;8196;49.428;10.906;2023-05-10T02:34:54;2.93;;;2.67;;
16179;SDS011;8196;49.428;10.906;2023-05-10T02:37:21;2.83;;;2.22;;
16179;SDS011;8196;49.428;10.906;2023-05-10T02:39:50;5.00;;;2.70;;
16179;SDS011;8196;49.428;10.906;2023-05-10T02:42:18;2.83;;;2.43;;
16179;SDS011;8196;49.428;10.906;2023-05-10T02:44:48;2.92;;;2.30;;
16179;SDS011;8196;49.428;10.906;2023-05-10T02:47:19;3.08;;;2.30;;
16179;SDS011;8196;49.428;10.906;2023-05-10T02:49:45;2.40;;;2.20;;
16179;SDS011;8196;49.428;10.906;2023-05-10T02:52:14;2.72;;;2.45;;
16179;SDS011;8196;49.428;10.906;2023-05-10T02:54:48;2.87;;;2.30;;
16179;SDS011;8196;49.428;10.906;2023-05-10T02:57:20;3.80;;;2.30;;
16179;SDS011;8196;49.428;10.906;2023-05-10T02:59:52;2.80;;;2.00;;
16179;SDS011;8196;49.428;10.906;2023-05-10T03:02:20;1.85;;;1.48;;
16179;SDS011;8196;49.428;10.906;2023-05-10T03:04:47;1.90;;;1.60;;
16179;SDS011;8196;49.428;10.906;2023-05-10T03:07:13;1.67;;;1.50;;
16179;SDS011;8196;49.428;10.906;2023-05-10T03:09:41;2.08;;;1.48;;
16179;SDS011;8196;49.428;10.906;2023-05-10T03:12:12;1.40;;;1.30;;
16179;SDS011;8196;49.428;10.906;2023-05-10T03:14:49;1.47;;;1.30;;
16179;SDS011;8196;49.428;10.906;2023-05-10T03:20:20;1.73;;;1.20;;
16179;SDS011;8196;49.428;10.906;2023-05-10T03:22:53;1.10;;;1.00;;
16179;SDS011;8196;49.428;10.906;2023-05-10T03:25:26;5.43;;;0.85;;
16179;SDS011;8196;49.428;10.906;2023-05-10T03:27:54;0.75;;;0.75;;
16179;SDS011;8196;49.428;10.906;2023-05-10T03:30:23;0.50;;;0.40;;
16179;SDS011;8196;49.428;10.906;2023-05-10T03:32:51;0.10;;;0.10;;
16179;SDS011;8196;49.428;10.906;2023-05-10T03:35:17;0.10;;;0.10;;
16179;SDS011;8196;49.428;10.906;2023-05-10T03:37:44;0.10;;;0.10;;
16179;SDS011;8196;49.428;10.906;2023-05-10T03:40:11;0.10;;;0.10;;
16179;SDS011;8196;49.428;10.906;2023-05-10T03:42:38;0.03;;;0.03;;
16179;SDS011;8196;49.428;10.906;2023-05-10T03:45:05;0.20;;;0.20;;
16179;SDS011;8196;49.428;10.906;2023-05-10T03:47:32;0.10;;;0.10;;
16179;SDS011;8196;49.428;10.906;2023-05-10T03:49:59;0.50;;;0.50;;
16179;SDS011;8196;49.428;10.906;2023-05-10T03:52:25;1.80;;;0.60;;
16179;SDS011;8196;49.428;10.906;2023-05-10T03:54:52;0.08;;;0.08;;
16179;SDS011;8196;49.428;10.906;2023-05-10T03:57:19;0.10;;;0.10;;
16179;SDS011;8196;49.428;10.906;2023-05-10T03:59:45;0.10;;;0.10;;
16179;SDS011;8196;49.428;10.906;2023-05-10T04:02:12;4.22;;;0.22;;
16179;SDS011;8196;49.428;10.906;2023-05-10T04:04:39;0.00;;;0.00;;
16179;SDS011;8196;49.428;10.906;2023-05-10T04:07:06;0.10;;;0.10;;
16179;SDS011;8196;49.428;10.906;2023-05-10T04:09:32;0.40;;;0.40;;
16179;SDS011;8196;49.428;10.906;2023-05-10T04:11:59;0.05;;;0.05;;
16179;SDS011;8196;49.428;10.906;2023-05-10T04:14:28;0.08;;;0.08;;
16179;SDS011;8196;49.428;10.906;2023-05-10T04:16:55;0.00;;;0.00;;
16179;SDS011;8196;49.428;10.906;2023-05-10T04:19:21;0.10;;;0.10;;
16179;SDS011;8196;49.428;10.906;2023-05-10T04:21:48;0.03;;;0.03;;
16179;SDS011;8196;49.428;10.906;2023-05-10T04:24:15;0.00;;;0.00;;
16179;SDS011;8196;49.428;10.906;2023-05-10T04:26:42;0.10;;;0.10;;
16179;SDS011;8196;49.428;10.906;2023-05-10T04:29:08;0.00;;;0.00;;
16179;SDS011;8196;49.428;10.906;2023-05-10T04:31:35;0.00;;;0.00;;
16179;SDS011;8196;49.428;10.906;2023-05-10T04:34:02;0.10;;;0.10;;
16179;SDS011;8196;49.428;10.906;2023-05-10T04:36:29;0.10;;;0.10;;
16179;SDS011;8196;49.428;10.906;2023-05-10T04:38:56;0.00;;;0.00;;
16179;SDS011;8196;49.428;10.906;2023-05-10T04:41:22;0.10;;;0.10;;
16179;SDS011;8196;49.428;10.906;2023-05-10T04:43:49;0.00;;;0.00;;
16179;SDS011;8196;49.428;10.906;2023-05-10T04:46:16;0.05;;;0.05;;
16179;SDS011;8196;49.428;10.906;2023-05-10T04:48:43;0.00;;;0.00;;
16179;SDS011;8196;49.428;10.906;2023-05-10T04:51:09;0.00;;;0.00;;
16179;SDS011;8196;49.428;10.906;2023-05-10T04:53:36;0.00;;;0.00;;
16179;SDS011;8196;49.428;10.906;2023-05-10T04:56:03;0.00;;;0.00;;
16179;SDS011;8196;49.428;10.906;2023-05-10T04:58:30;0.10;;;0.10;;
16179;SDS011;8196;49.428;10.906;2023-05-10T05:00:57;0.10;;;0.10;;
16179;SDS011;8196;49.428;10.906;2023-05-10T05:03:30;0.00;;;0.00;;
16179;SDS011;8196;49.428;10.906;2023-05-10T05:05:58;0.10;;;0.10;;
16179;SDS011;8196;49.428;10.906;2023-05-10T05:08:24;0.10;;;0.10;;
16179;SDS011;8196;49.428;10.906;2023-05-10T05:10:51;0.00;;;0.00;;
16179;SDS011;8196;49.428;10.906;2023-05-10T05:13:18;0.10;;;0.10;;
16179;SDS011;8196;49.428;10.906;2023-05-10T05:15:45;0.30;;;0.20;;
16179;SDS011;8196;49.428;10.906;2023-05-10T05:18:12;0.00;;;0.00;;
16179;SDS011;8196;49.428;10.906;2023-05-10T05:20:38;0.10;;;0.10;;
16179;SDS011;8196;49.428;10.906;2023-05-10T05:23:05;0.03;;;0.03;;
16179;SDS011;8196;49.428;10.906;2023-05-10T05:25:32;0.20;;;0.20;;
16179;SDS011;8196;49.428;10.906;2023-05-10T05:27:59;0.10;;;0.10;;
16179;SDS011;8196;49.428;10.906;2023-05-10T05:30:25;0.20;;;0.20;;
16179;SDS011;8196;49.428;10.906;2023-05-10T05:32:52;0.40;;;0.40;;
16179;SDS011;8196;49.428;10.906;2023-05-10T05:35:19;0.20;;;0.20;;
16179;SDS011;8196;49.428;10.906;2023-05-10T05:37:46;0.10;;;0.10;;
16179;SDS011;8196;49.428;10.906;2023-05-10T05:40:13;0.10;;;0.10;;
16179;SDS011;8196;49.428;10.906;2023-05-10T05:42:40;0.10;;;0.10;;
16179;SDS011;8196;49.428;10.906;2023-05-10T05:45:07;0.20;;;0.20;;
16179;SDS011;8196;49.428;10.906;2023-05-10T05:47:35;0.50;;;0.50;;
16179;SDS011;8196;49.428;10.906;2023-05-10T05:50:02;0.50;;;0.47;;
16179;SDS011;8196;49.428;10.906;2023-05-10T05:52:29;0.30;;;0.30;;
16179;SDS011;8196;49.428;10.906;2023-05-10T05:54:56;0.30;;;0.30;;
16179;SDS011;8196;49.428;10.906;2023-05-10T05:57:23;0.80;;;0.60;;
16179;SDS011;8196;49.428;10.906;2023-05-10T05:59:50;1.35;;;0.63;;
16179;SDS011;8196;49.428;10.906;2023-05-10T06:02:16;0.35;;;0.35;;
16179;SDS011;8196;49.428;10.906;2023-05-10T06:04:43;0.50;;;0.50;;
16179;SDS011;8196;49.428;10.906;2023-05-10T06:07:10;0.35;;;0.35;;
16179;SDS011;8196;49.428;10.906;2023-05-10T06:09:37;0.50;;;0.50;;
16179;SDS011;8196;49.428;10.906;2023-05-10T06:12:04;0.50;;;0.50;;
16179;SDS011;8196;49.428;10.906;2023-05-10T06:14:31;0.60;;;0.60;;
16179;SDS011;8196;49.428;10.906;2023-05-10T06:16:57;0.60;;;0.60;;
16179;SDS011;8196;49.428;10.906;2023-05-10T06:19:26;0.60;;;0.60;;
16179;SDS011;8196;49.428;10.906;2023-05-10T06:21:53;1.30;;;0.77;;
16179;SDS011;8196;49.428;10.906;2023-05-10T06:24:20;1.55;;;0.80;;
16179;SDS011;8196;49.428;10.906;2023-05-10T06:26:47;0.63;;;0.63;;
16179;SDS011;8196;49.428;10.906;2023-05-10T06:29:16;0.75;;;0.75;;
16179;SDS011;8196;49.428;10.906;2023-05-10T06:31:42;0.80;;;0.80;;
16179;SDS011;8196;49.428;10.906;2023-05-10T06:34:09;0.77;;;0.77;;
16179;SDS011;8196;49.428;10.906;2023-05-10T06:36:37;0.68;;;0.68;;
16179;SDS011;8196;49.428;10.906;2023-05-10T06:39:04;0.70;;;0.70;;
16179;SDS011;8196;49.428;10.906;2023-05-10T06:41:31;0.70;;;0.70;;
16179;SDS011;8196;49.428;10.906;2023-05-10T06:43:58;0.80;;;0.80;;
16179;SDS011;8196;49.428;10.906;2023-05-10T06:46:25;0.60;;;0.60;;
16179;SDS011;8196;49.428;10.906;2023-05-10T06:48:51;0.88;;;0.80;;
16179;SDS011;8196;49.428;10.906;2023-05-10T06:51:18;1.40;;;0.93;;
16179;SDS011;8196;49.428;10.906;2023-05-10T06:53:47;1.00;;;0.90;;
16179;SDS011;8196;49.428;10.906;2023-05-10T06:56:13;1.10;;;1.00;;
16179;SDS011;8196;49.428;10.906;2023-05-10T06:58:40;1.15;;;1.00;;
16179;SDS011;8196;49.428;10.906;2023-05-10T07:01:07;1.03;;;0.93;;
16179;SDS011;8196;49.428;10.906;2023-05-10T07:03:34;1.20;;;0.88;;
16179;SDS011;8196;49.428;10.906;2023-05-10T07:06:01;1.07;;;1.03;;
16179;SDS011;8196;49.428;10.906;2023-05-10T07:08:30;1.10;;;1.00;;
16179;SDS011;8196;49.428;10.906;2023-05-10T07:11:00;1.08;;;0.90;;
16179;SDS011;8196;49.428;10.906;2023-05-10T07:13:27;1.67;;;1.10;;
16179;SDS011;8196;49.428;10.906;2023-05-10T07:15:54;1.60;;;1.10;;
16179;SDS011;8196;49.428;10.906;2023-05-10T07:18:20;1.20;;;1.10;;
16179;SDS011;8196;49.428;10.906;2023-05-10T07:20:47;1.20;;;1.10;;
16179;SDS011;8196;49.428;10.906;2023-05-10T07:23:14;1.10;;;1.00;;
16179;SDS011;8196;49.428;10.906;2023-05-10T07:25:41;1.10;;;1.00;;
16179;SDS011;8196;49.428;10.906;2023-05-10T07:28:08;1.25;;;1.05;;
16179;SDS011;8196;49.428;10.906;2023-05-10T07:30:34;1.45;;;1.17;;
16179;SDS011;8196;49.428;10.906;2023-05-10T07:35:28;1.37;;;1.10;;
16179;SDS011;8196;49.428;10.906;2023-05-10T07:37:55;1.50;;;1.30;;
16179;SDS011;8196;49.428;10.906;2023-05-10T07:40:22;1.95;;;1.20;;
16179;SDS011;8196;49.428;10.906;2023-05-10T07:42:49;1.25;;;1.15;;
16179;SDS011;8196;49.428;10.906;2023-05-10T07:45:15;1.33;;;1.20;;
16179;SDS011;8196;49.428;10.906;2023-05-10T07:47:42;1.30;;;1.20;;
16179;SDS011;8196;49.428;10.906;2023-05-10T07:50:09;1.20;;;1.10;;
16179;SDS011;8196;49.428;10.906;2023-05-10T07:52:36;1.27;;;1.17;;
16179;SDS011;8196;49.428;10.906;2023-05-10T07:55:03;2.10;;;1.05;;
16179;SDS011;8196;49.428;10.906;2023-05-10T07:57:30;1.17;;;1.08;;
16179;SDS011;8196;49.428;10.906;2023-05-10T07:59:57;1.30;;;1.20;;
16179;SDS011;8196;49.428;10.906;2023-05-10T08:02:23;1.83;;;1.48;;
16179;SDS011;8196;49.428;10.906;2023-05-10T08:04:50;1.33;;;1.23;;
16179;SDS011;8196;49.428;10.906;2023-05-10T08:07:17;1.92;;;1.30;;
16179;SDS011;8196;49.428;10.906;2023-05-10T08:09:44;1.48;;;1.35;;
16179;SDS011;8196;49.428;10.906;2023-05-10T08:12:10;1.40;;;1.30;;
16179;SDS011;8196;49.428;10.906;2023-05-10T08:14:37;2.83;;;1.38;;
16179;SDS011;8196;49.428;10.906;2023-05-10T08:17:04;1.90;;;1.48;;
16179;SDS011;8196;49.428;10.906;2023-05-10T08:19:31;1.95;;;1.30;;
16179;SDS011;8196;49.428;10.906;2023-05-10T08:21:58;1.60;;;1.30;;
16179;SDS011;8196;49.428;10.906;2023-05-10T08:24:25;1.40;;;1.30;;
16179;SDS011;8196;49.428;10.906;2023-05-10T08:26:52;1.50;;;1.40;;
16179;SDS011;8196;49.428;10.906;2023-05-10T08:29:18;1.50;;;1.40;;
16179;SDS011;8196;49.428;10.906;2023-05-10T08:31:45;2.05;;;1.38;;
16179;SDS011;8196;49.428;10.906;2023-05-10T08:34:12;2.70;;;1.50;;
16179;SDS011;8196;49.428;10.906;2023-05-10T08:36:39;1.63;;;1.50;;
16179;SDS011;8196;49.428;10.906;2023-05-10T08:39:05;1.70;;;1.60;;
16179;SDS011;8196;49.428;10.906;2023-05-10T08:41:45;1.73;;;1.63;;
16179;SDS011;8196;49.428;10.906;2023-05-10T08:44:14;2.17;;;1.80;;
16179;SDS011;8196;49.428;10.906;2023-05-10T08:46:45;1.92;;;1.70;;
16179;SDS011;8196;49.428;10.906;2023-05-10T08:49:13;2.17;;;1.67;;
16179;SDS011;8196;49.428;10.906;2023-05-10T08:51:47;2.85;;;1.92;;
16179;SDS011;8196;49.428;10.906;2023-05-10T08:54:17;2.43;;;1.60;;
16179;SDS011;8196;49.428;10.906;2023-05-10T08:56:43;3.08;;;1.60;;
16179;SDS011;8196;49.428;10.906;2023-05-10T08:59:13;2.05;;;1.70;;
16179;SDS011;8196;49.428;10.906;2023-05-10T09:01:41;1.80;;;1.47;;
16179;SDS011;8196;49.428;10.906;2023-05-10T09:04:10;2.70;;;1.70;;
16179;SDS011;8196;49.428;10.906;2023-05-10T09:06:38;1.75;;;1.38;;
16179;SDS011;8196;49.428;10.906;2023-05-10T09:09:05;2.40;;;1.40;;
16179;SDS011;8196;49.428;10.906;2023-05-10T09:11:32;1.48;;;1.38;;
16179;SDS011;8196;49.428;10.906;2023-05-10T09:14:00;1.58;;;1.48;;
16179;SDS011;8196;49.428;10.906;2023-05-10T09:16:27;2.08;;;1.63;;
16179;SDS011;8196;49.428;10.906;2023-05-10T09:18:54;1.55;;;1.45;;
16179;SDS011;8196;49.428;10.906;2023-05-10T09:21:21;1.67;;;1.33;;
16179;SDS011;8196;49.428;10.906;2023-05-10T09:23:48;2.25;;;1.85;;
16179;SDS011;8196;49.428;10.906;2023-05-10T09:26:16;1.40;;;1.30;;
16179;SDS011;8196;49.428;10.906;2023-05-10T09:28:51;1.75;;;1.65;;
16179;SDS011;8196;49.428;10.906;2023-05-10T09:31:19;0.80;;;0.80;;
16179;SDS011;8196;49.428;10.906;2023-05-10T09:33:47;1.10;;;1.00;;
16179;SDS011;8196;49.428;10.906;2023-05-10T09:36:15;1.73;;;1.15;;
16179;SDS011;8196;49.428;10.906;2023-05-10T09:38:50;1.80;;;1.30;;
16179;SDS011;8196;49.428;10.906;2023-05-10T09:41:19;2.30;;;1.35;;
16179;SDS011;8196;49.428;10.906;2023-05-10T09:43:50;2.23;;;1.33;;
16179;SDS011;8196;49.428;10.906;2023-05-10T09:46:21;1.40;;;1.13;;
16179;SDS011;8196;49.428;10.906;2023-05-10T09:48:49;3.73;;;1.30;;
16179;SDS011;8196;49.428;10.906;2023-05-10T09:51:19;1.33;;;1.10;;
16179;SDS011;8196;49.428;10.906;2023-05-10T09:56:39;1.30;;;1.05;;
16179;SDS011;8196;49.428;10.906;2023-05-10T09:59:09;1.50;;;1.10;;
16179;SDS011;8196;49.428;10.906;2023-05-10T10:01:37;1.73;;;1.30;;
16179;SDS011;8196;49.428;10.906;2023-05-10T10:04:05;1.90;;;1.30;;
16179;SDS011;8196;49.428;10.906;2023-05-10T10:06:35;1.77;;;1.20;;
16179;SDS011;8196;49.428;10.906;2023-05-10T10:09:03;1.48;;;1.10;;
16179;SDS011;8196;49.428;10.906;2023-05-10T10:11:31;1.80;;;1.30;;
16179;SDS011;8196;49.428;10.906;2023-05-10T10:13:58;1.13;;;0.93;;
16179;SDS011;8196;49.428;10.906;2023-05-10T10:16:26;0.90;;;0.90;;
16179;SDS011;8196;49.428;10.906;2023-05-10T10:18:55;1.20;;;1.10;;
16179;SDS011;8196;49.428;10.906;2023-05-10T10:21:23;2.08;;;1.10;;
16179;SDS011;8196;49.428;10.906;2023-05-10T10:23:50;1.17;;;0.93;;
16179;SDS011;8196;49.428;10.906;2023-05-10T10:26:19;0.80;;;0.80;;
16179;SDS011;8196;49.428;10.906;2023-05-10T10:28:51;1.27;;;0.90;;
16179;SDS011;8196;49.428;10.906;2023-05-10T10:31:27;1.35;;;1.23;;
16179;SDS011;8196;49.428;10.906;2023-05-10T10:34:06;1.08;;;0.98;;
16179;SDS011;8196;49.428;10.906;2023-05-10T10:36:50;1.52;;;1.40;;
16179;SDS011;8196;49.428;10.906;2023-05-10T10:39:16;1.45;;;1.20;;
16179;SDS011;8196;49.428;10.906;2023-05-10T10:41:52;1.42;;;1.23;;
16179;SDS011;8196;49.428;10.906;2023-05-10T10:55:00;1.40;;;1.30;;
16179;SDS011;8196;49.428;10.906;2023-05-10T10:57:28;1.52;;;1.30;;
16179;SDS011;8196;49.428;10.906;2023-05-10T11:02:47;1.20;;;1.00;;
16179;SDS011;8196;49.428;10.906;2023-05-10T11:08:06;2.47;;;1.23;;
16179;SDS011;8196;49.428;10.906;2023-05-10T11:10:35;2.10;;;1.20;;
16179;SDS011;8196;49.428;10.906;2023-05-10T11:13:02;1.30;;;1.20;;
16179;SDS011;8196;49.428;10.906;2023-05-10T11:15:32;1.40;;;1.20;;
16179;SDS011;8196;49.428;10.906;2023-05-10T11:20:55;2.03;;;1.45;;
16179;SDS011;8196;49.428;10.906;2023-05-10T11:23:22;2.10;;;1.60;;
16179;SDS011;8196;49.428;10.906;2023-05-10T11:25:49;2.92;;;1.45;;
16179;SDS011;8196;49.428;10.906;2023-05-10T11:28:17;1.40;;;1.30;;
16179;SDS011;8196;49.428;10.906;2023-05-10T11:30:46;1.65;;;1.20;;
16179;SDS011;8196;49.428;10.906;2023-05-10T11:33:15;1.38;;;1.20;;
16179;SDS011;8196;49.428;10.906;2023-05-10T11:35:43;1.30;;;1.20;;
16179;SDS011;8196;49.428;10.906;2023-05-10T11:38:10;2.20;;;1.20;;
16179;SDS011;8196;49.428;10.906;2023-05-10T11:40:38;1.80;;;1.30;;
16179;SDS011;8196;49.428;10.906;2023-05-10T11:43:08;2.03;;;1.30;;
16179;SDS011;8196;49.428;10.906;2023-05-10T11:45:36;1.30;;;1.20;;
16179;SDS011;8196;49.428;10.906;2023-05-10T11:48:03;1.30;;;1.20;;
16179;SDS011;8196;49.428;10.906;2023-05-10T11:50:30;2.13;;;1.10;;
16179;SDS011;8196;49.428;10.906;2023-05-10T11:52:58;1.15;;;1.00;;
16179;SDS011;8196;49.428;10.906;2023-05-10T11:55:25;0.90;;;0.90;;
16179;SDS011;8196;49.428;10.906;2023-05-10T11:57:52;1.15;;;1.05;;
16179;SDS011;8196;49.428;10.906;2023-05-10T12:00:20;2.40;;;1.00;;
16179;SDS011;8196;49.428;10.906;2023-05-10T12:02:47;0.85;;;0.82;;
16179;SDS011;8196;49.428;10.906;2023-05-10T12:05:15;1.17;;;0.90;;
16179;SDS011;8196;49.428;10.906;2023-05-10T12:07:42;1.98;;;0.80;;
16179;SDS011;8196;49.428;10.906;2023-05-10T12:10:09;1.05;;;0.68;;
16179;SDS011;8196;49.428;10.906;2023-05-10T12:12:42;0.80;;;0.80;;
16179;SDS011;8196;49.428;10.906;2023-05-10T12:15:11;0.77;;;0.70;;
16179;SDS011;8196;49.428;10.906;2023-05-10T12:17:44;0.90;;;0.90;;
16179;SDS011;8196;49.428;10.906;2023-05-10T12:20:12;1.15;;;1.05;;
16179;SDS011;8196;49.428;10.906;2023-05-10T12:22:50;0.90;;;0.90;;
16179;SDS011;8196;49.428;10.906;2023-05-10T12:25:19;1.20;;;1.10;;
16179;SDS011;8196;49.428;10.906;2023-05-10T12:27:48;2.50;;;1.00;;
16179;SDS011;8196;49.428;10.906;2023-05-10T12:30:20;1.23;;;1.07;;
16179;SDS011;8196;49.428;10.906;2023-05-10T12:32:49;1.13;;;1.00;;
16179;SDS011;8196;49.428;10.906;2023-05-10T12:35:16;1.23;;;1.10;;
16179;SDS011;8196;49.428;10.906;2023-05-10T12:37:43;1.73;;;1.27;;
16179;SDS011;8196;49.428;10.906;2023-05-10T12:40:10;1.20;;;1.10;;
16179;SDS011;8196;49.428;10.906;2023-05-10T12:42:38;1.42;;;1.05;;
16179;SDS011;8196;49.428;10.906;2023-05-10T12:45:06;1.17;;;1.07;;
16179;SDS011;8196;49.428;10.906;2023-05-10T12:47:34;1.80;;;1.15;;
16179;SDS011;8196;49.428;10.906;2023-05-10T12:50:01;1.80;;;1.13;;
16179;SDS011;8196;49.428;10.906;2023-05-10T12:52:29;1.58;;;0.80;;
16179;SDS011;8196;49.428;10.906;2023-05-10T12:54:56;1.90;;;1.10;;
16179;SDS011;8196;49.428;10.906;2023-05-10T12:57:23;1.50;;;1.10;;
16179;SDS011;8196;49.428;10.906;2023-05-10T12:59:49;1.20;;;1.02;;
16179;SDS011;8196;49.428;10.906;2023-05-10T13:02:16;1.30;;;1.20;;
16179;SDS011;8196;49.428;10.906;2023-05-10T13:04:44;1.10;;;1.00;;
16179;SDS011;8196;49.428;10.906;2023-05-10T13:07:15;1.02;;;0.93;;
16179;SDS011;8196;49.428;10.906;2023-05-10T13:09:42;1.30;;;1.20;;
16179;SDS011;8196;49.428;10.906;2023-05-10T13:12:09;1.30;;;1.20;;
16179;SDS011;8196;49.428;10.906;2023-05-10T13:14:36;1.45;;;1.10;;
16179;SDS011;8196;49.428;10.906;2023-05-10T13:17:03;1.38;;;1.27;;
16179;SDS011;8196;49.428;10.906;2023-05-10T13:19:30;2.80;;;1.20;;
16179;SDS011;8196;49.428;10.906;2023-05-10T13:21:56;1.17;;;1.08;;
16179;SDS011;8196;49.428;10.906;2023-05-10T13:24:24;2.15;;;1.48;;
16179;SDS011;8196;49.428;10.906;2023-05-10T13:26:51;1.70;;;1.35;;
16179;SDS011;8196;49.428;10.906;2023-05-10T13:29:17;1.98;;;1.00;;
16179;SDS011;8196;49.428;10.906;2023-05-10T13:31:45;0.70;;;0.70;;
16179;SDS011;8196;49.428;10.906;2023-05-10T13:34:12;1.00;;;0.90;;
16179;SDS011;8196;49.428;10.906;2023-05-10T13:36:38;1.00;;;0.90;;
16179;SDS011;8196;49.428;10.906;2023-05-10T13:39:05;1.05;;;0.95;;
16179;SDS011;8196;49.428;10.906;2023-05-10T13:41:32;0.90;;;0.90;;
16179;SDS011;8196;49.428;10.906;2023-05-10T13:43:59;0.90;;;0.90;;
16179;SDS011;8196;49.428;10.906;2023-05-10T13:46:26;0.77;;;0.77;;
16179;SDS011;8196;49.428;10.906;2023-05-10T13:48:52;1.45;;;0.88;;
16179;SDS011;8196;49.428;10.906;2023-05-10T13:51:19;1.05;;;0.90;;
16179;SDS011;8196;49.428;10.906;2023-05-10T13:53:46;1.02;;;0.98;;
16179;SDS011;8196;49.428;10.906;2023-05-10T13:56:13;1.10;;;1.00;;
16179;SDS011;8196;49.428;10.906;2023-05-10T13:58:40;1.50;;;1.00;;
16179;SDS011;8196;49.428;10.906;2023-05-10T14:01:07;1.27;;;0.80;;
16179;SDS011;8196;49.428;10.906;2023-05-10T14:03:34;1.20;;;1.10;;
16179;SDS011;8196;49.428;10.906;2023-05-10T14:06:01;1.65;;;1.08;;
16179;SDS011;8196;49.428;10.906;2023-05-10T14:08:28;1.65;;;1.17;;
16179;SDS011;8196;49.428;10.906;2023-05-10T14:10:55;1.23;;;1.13;;
16179;SDS011;8196;49.428;10.906;2023-05-10T14:13:23;2.00;;;1.00;;
16179;SDS011;8196;49.428;10.906;2023-05-10T14:15:52;1.48;;;1.08;;
16179;SDS011;8196;49.428;10.906;2023-05-10T14:18:19;0.90;;;0.90;;
16179;SDS011;8196;49.428;10.906;2023-05-10T14:20:47;1.10;;;1.00;;
16179;SDS011;8196;49.428;10.906;2023-05-10T14:23:13;1.20;;;1.10;;
16179;SDS011;8196;49.428;10.906;2023-05-10T14:25:40;1.13;;;1.00;;
16179;SDS011;8196;49.428;10.906;2023-05-10T14:28:07;1.20;;;1.10;;
16179;SDS011;8196;49.428;10.906;2023-05-10T14:30:34;2.13;;;1.05;;
16179;SDS011;8196;49.428;10.906;2023-05-10T14:33:01;1.38;;;1.02;;
16179;SDS011;8196;49.428;10.906;2023-05-10T14:35:28;1.45;;;1.10;;
16179;SDS011;8196;49.428;10.906;2023-05-10T14:37:57;1.42;;;1.33;;
16179;SDS011;8196;49.428;10.906;2023-05-10T14:40:24;1.20;;;1.10;;
16179;SDS011;8196;49.428;10.906;2023-05-10T14:42:52;1.30;;;1.00;;
16179;SDS011;8196;49.428;10.906;2023-05-10T14:45:19;1.87;;;0.97;;
16179;SDS011;8196;49.428;10.906;2023-05-10T14:47:47;0.90;;;0.90;;
16179;SDS011;8196;49.428;10.906;2023-05-10T14:50:14;1.50;;;1.15;;
16179;SDS011;8196;49.428;10.906;2023-05-10T14:53:00;1.20;;;1.10;;
16179;SDS011;8196;49.428;10.906;2023-05-10T14:55:27;1.20;;;1.10;;
16179;SDS011;8196;49.428;10.906;2023-05-10T14:57:54;0.73;;;0.73;;
16179;SDS011;8196;49.428;10.906;2023-05-10T15:00:20;0.90;;;0.90;;
16179;SDS011;8196;49.428;10.906;2023-05-10T15:02:48;1.10;;;0.80;;
16179;SDS011;8196;49.428;10.906;2023-05-10T15:05:15;1.10;;;0.77;;
16179;SDS011;8196;49.428;10.906;2023-05-10T15:07:43;0.70;;;0.70;;
16179;SDS011;8196;49.428;10.906;2023-05-10T15:10:10;0.70;;;0.70;;
16179;SDS011;8196;49.428;10.906;2023-05-10T15:12:37;0.70;;;0.70;;
16179;SDS011;8196;49.428;10.906;2023-05-10T15:15:04;0.80;;;0.80;;
16179;SDS011;8196;49.428;10.906;2023-05-10T15:17:32;0.77;;;0.75;;
16179;SDS011;8196;49.428;10.906;2023-05-10T15:20:00;0.80;;;0.80;;
16179;SDS011;8196;49.428;10.906;2023-05-10T15:22:29;0.80;;;0.80;;
16179;SDS011;8196;49.428;10.906;2023-05-10T15:24:59;1.20;;;0.93;;
16179;SDS011;8196;49.428;10.906;2023-05-10T15:27:26;0.80;;;0.80;;
16179;SDS011;8196;49.428;10.906;2023-05-10T15:29:53;2.33;;;1.00;;
16179;SDS011;8196;49.428;10.906;2023-05-10T15:32:19;1.23;;;1.10;;
16179;SDS011;8196;49.428;10.906;2023-05-10T15:34:46;1.00;;;0.98;;